1886 NOT_NAMED (1886091S12064)


IBTrACS version v04r00. Visit IBTrACS website for data access.
Please direct all questions to the IBTrACS Q and A forum

Storm track - Intensity - Wind Radii - Intensity Data - Source Data - All data

Summary Information

Storm ID 1886091S12064
Start Mar 31 18Z
End Apr 9 06Z
ATCF IDs
Track status Best track data.

Storm track plot

Map of storm track

Intensity plots

No Intensity information for this storm


Radial wind information

No radial wind information for this storm


Position and Intensity Table

BASIN ISO_TIME_________ NATURE LAT LON
degrees north degrees east
SI 1886-03-31 18:00:00 NR -12.30 64.30
SI 21:00:00 NR -12.41 63.75
SI 1886-04-01 00:00:00 NR -12.51 63.22
SI 03:00:00 NR -12.61 62.73
SI 06:00:00 NR -12.70 62.30
SI 09:00:00 NR -12.79 61.95
SI 12:00:00 NR -12.86 61.67
SI 15:00:00 NR -12.94 61.42
SI 18:00:00 NR -13.00 61.20
SI 21:00:00 NR -13.03 61.00
SI 1886-04-02 00:00:00 NR -13.06 60.80
SI 03:00:00 NR -13.11 60.58
SI 06:00:00 NR -13.20 60.30
SI 09:00:00 NR -13.36 59.91
SI 12:00:00 NR -13.56 59.45
SI 15:00:00 NR -13.78 58.97
SI 18:00:00 NR -14.00 58.50
SI 21:00:00 NR -14.19 58.05
SI 1886-04-03 00:00:00 NR -14.38 57.61
SI 03:00:00 NR -14.55 57.22
SI 06:00:00 NR -14.70 56.90
SI 09:00:00 NR -14.83 56.67
SI 12:00:00 NR -14.93 56.51
SI 15:00:00 NR -15.02 56.39
SI 18:00:00 NR -15.10 56.30
SI 21:00:00 NR -15.17 56.20
SI 1886-04-04 00:00:00 NR -15.23 56.11
SI 03:00:00 NR -15.31 56.01
SI 06:00:00 NR -15.40 55.90
SI 09:00:00 NR -15.53 55.74
SI 12:00:00 NR -15.69 55.57
SI 15:00:00 NR -15.85 55.38
SI 18:00:00 NR -16.00 55.20
SI 21:00:00 NR -16.13 55.03
SI 1886-04-05 00:00:00 NR -16.25 54.88
SI 03:00:00 NR -16.37 54.73
SI 06:00:00 NR -16.50 54.60
SI 09:00:00 NR -16.64 54.49
SI 12:00:00 NR -16.78 54.39
SI 15:00:00 NR -16.94 54.30
SI 18:00:00 NR -17.10 54.20
SI 21:00:00 NR -17.27 54.09
SI 1886-04-06 00:00:00 NR -17.44 53.96
SI 03:00:00 NR -17.62 53.84
SI 06:00:00 NR -17.80 53.70
SI 09:00:00 NR -17.95 53.55
SI 12:00:00 NR -18.11 53.39
SI 15:00:00 NR -18.29 53.24
SI 18:00:00 NR -18.50 53.10
SI 21:00:00 NR -18.76 52.97
SI 1886-04-07 00:00:00 NR -19.05 52.86
SI 03:00:00 NR -19.37 52.77
SI 06:00:00 NR -19.70 52.70
SI 09:00:00 NR -20.01 52.67
SI 12:00:00 NR -20.33 52.66
SI 15:00:00 NR -20.66 52.64
SI 18:00:00 NR -21.00 52.60
SI 21:00:00 NR -21.34 52.41
SI 1886-04-08 00:00:00 NR -21.69 52.20
SI 03:00:00 NR -22.05 52.07
SI 06:00:00 NR -22.40 52.10
SI 09:00:00 NR -22.76 52.44
SI 12:00:00 NR -23.12 52.94
SI 15:00:00 NR -23.47 53.50
SI 18:00:00 NR -23.80 54.00
SI 21:00:00 NR -24.10 54.37
SI 1886-04-09 00:00:00 NR -24.38 54.61
SI 03:00:00 NR -24.64 54.78
SI 06:00:00 NR -24.90 54.90

Source Information

Agency Information
USA
TOKYO
CMA
HKO
NEWDELHI
REUNION
BOM
NADI
WELLINGTON
DS824
TD9636 cons_worldwide_trop_cyclone_18710101-19891231-005:Line=1980
TD9635
NEUMANN
MLC

All available IBTrACS Data

SEASON BASIN SUBBASIN ISO_TIME_________ NATURE LAT LON DIST2LAND LANDFALL IFLAG USA SSHS TD9636 LAT TD9636 LON TD9636 STAGE STORM SPEED STORM DIR
Year degrees north degrees east km km 1 degrees north degrees east kts degrees
1886 SI MM 1886-03-31 18:00:00 NR -12.30 64.30 1121 1079 __________O___ -1 -12.30 64.30 7 11 259
1886 SI MM 21:00:00 NR -12.41 63.75 1073 1033 __________P___ -1 -12.41 63.75 7 11 259
1886 SI MM 1886-04-01 00:00:00 NR -12.51 63.22 1033 1000 __________P___ -1 -12.51 63.22 7 10 259
1886 SI MM 03:00:00 NR -12.61 62.73 994 962 __________P___ -1 -12.61 62.73 7 9 258
1886 SI MM 06:00:00 NR -12.70 62.30 962 936 __________O___ -1 -12.70 62.30 7 8 257
1886 SI MM 09:00:00 NR -12.79 61.95 936 911 __________P___ -1 -12.79 61.95 7 6 255
1886 SI MM 12:00:00 NR -12.86 61.67 911 897 __________P___ -1 -12.86 61.67 7 5 254
1886 SI MM 15:00:00 NR -12.94 61.42 897 877 __________P___ -1 -12.94 61.42 7 5 253
1886 SI MM 18:00:00 NR -13.00 61.20 877 868 __________O___ -1 -13.00 61.20 7 4 257
1886 SI MM 21:00:00 NR -13.03 61.00 868 850 __________P___ -1 -13.03 61.00 7 4 261
1886 SI MM 1886-04-02 00:00:00 NR -13.06 60.80 850 842 __________P___ -1 -13.06 60.80 7 4 259
1886 SI MM 03:00:00 NR -13.11 60.58 842 820 __________P___ -1 -13.11 60.58 7 5 254
1886 SI MM 06:00:00 NR -13.20 60.30 820 785 __________O___ -1 -13.20 60.30 7 7 249
1886 SI MM 09:00:00 NR -13.36 59.91 785 752 __________P___ -1 -13.36 59.91 7 9 246
1886 SI MM 12:00:00 NR -13.56 59.45 752 718 __________P___ -1 -13.56 59.45 7 10 245
1886 SI MM 15:00:00 NR -13.78 58.97 718 687 __________P___ -1 -13.78 58.97 7 10 245
1886 SI MM 18:00:00 NR -14.00 58.50 687 661 __________O___ -1 -14.00 58.50 7 10 245
1886 SI MM 21:00:00 NR -14.19 58.05 660 637 __________P___ -1 -14.19 58.05 7 9 246
1886 SI MM 1886-04-03 00:00:00 NR -14.38 57.61 637 626 __________P___ -1 -14.38 57.61 7 9 246
1886 SI MM 03:00:00 NR -14.55 57.22 616 606 __________P___ -1 -14.55 57.22 7 8 245
1886 SI MM 06:00:00 NR -14.70 56.90 607 597 __________O___ -1 -14.70 56.90 7 6 243
1886 SI MM 09:00:00 NR -14.83 56.67 599 589 __________P___ -1 -14.83 56.67 7 4 239
1886 SI MM 12:00:00 NR -14.93 56.51 591 580 __________P___ -1 -14.93 56.51 7 3 234
1886 SI MM 15:00:00 NR -15.02 56.39 582 571 __________P___ -1 -15.02 56.39 7 3 230
1886 SI MM 18:00:00 NR -15.10 56.30 573 565 __________O___ -1 -15.10 56.30 7 2 232
1886 SI MM 21:00:00 NR -15.17 56.20 565 565 __________P___ -1 -15.17 56.20 7 2 234
1886 SI MM 1886-04-04 00:00:00 NR -15.23 56.11 567 557 __________P___ -1 -15.23 56.11 7 2 232
1886 SI MM 03:00:00 NR -15.31 56.01 560 549 __________P___ -1 -15.31 56.01 7 3 230
1886 SI MM 06:00:00 NR -15.40 55.90 552 545 __________O___ -1 -15.40 55.90 7 3 229
1886 SI MM 09:00:00 NR -15.53 55.74 548 531 __________P___ -1 -15.53 55.74 7 4 228
1886 SI MM 12:00:00 NR -15.69 55.57 531 525 __________P___ -1 -15.69 55.57 7 5 228
1886 SI MM 15:00:00 NR -15.85 55.38 526 507 __________P___ -1 -15.85 55.38 7 5 228
1886 SI MM 18:00:00 NR -16.00 55.20 507 488 __________O___ -1 -16.00 55.20 7 4 229
1886 SI MM 21:00:00 NR -16.13 55.03 488 479 __________P___ -1 -16.13 55.03 7 4 231
1886 SI MM 1886-04-05 00:00:00 NR -16.25 54.88 479 463 __________P___ -1 -16.25 54.88 7 4 230
1886 SI MM 03:00:00 NR -16.37 54.73 463 452 __________P___ -1 -16.37 54.73 7 4 227
1886 SI MM 06:00:00 NR -16.50 54.60 455 448 __________O___ -1 -16.50 54.60 7 4 221
1886 SI MM 09:00:00 NR -16.64 54.49 448 441 __________P___ -1 -16.64 54.49 7 3 215
1886 SI MM 12:00:00 NR -16.78 54.39 445 439 __________P___ -1 -16.78 54.39 7 4 211
1886 SI MM 15:00:00 NR -16.94 54.30 439 433 __________P___ -1 -16.94 54.30 7 4 210
1886 SI MM 18:00:00 NR -17.10 54.20 438 432 __________O___ -1 -17.10 54.20 7 4 211
1886 SI MM 21:00:00 NR -17.27 54.09 432 425 __________P___ -1 -17.27 54.09 7 4 213
1886 SI MM 1886-04-06 00:00:00 NR -17.44 53.96 425 407 __________P___ -1 -17.44 53.96 7 4 214
1886 SI MM 03:00:00 NR -17.62 53.84 411 395 __________P___ -1 -17.62 53.84 7 4 215
1886 SI MM 06:00:00 NR -17.80 53.70 395 385 __________O___ -1 -17.80 53.70 7 4 219
1886 SI MM 09:00:00 NR -17.95 53.55 384 380 __________P___ -1 -17.95 53.55 7 4 223
1886 SI MM 12:00:00 NR -18.11 53.39 380 367 __________P___ -1 -18.11 53.39 7 4 221
1886 SI MM 15:00:00 NR -18.29 53.24 373 362 __________P___ -1 -18.29 53.24 7 5 216
1886 SI MM 18:00:00 NR -18.50 53.10 362 352 __________O___ -1 -18.50 53.10 7 5 208
1886 SI MM 21:00:00 NR -18.76 52.97 344 335 __________P___ -1 -18.76 52.97 7 6 202
1886 SI MM 1886-04-07 00:00:00 NR -19.05 52.86 328 314 __________P___ -1 -19.05 52.86 7 6 198
1886 SI MM 03:00:00 NR -19.37 52.77 314 303 __________P___ -1 -19.37 52.77 7 7 193
1886 SI MM 06:00:00 NR -19.70 52.70 303 287 __________O___ -1 -19.70 52.70 7 7 189
1886 SI MM 09:00:00 NR -20.01 52.67 287 274 __________P___ -1 -20.01 52.67 7 6 184
1886 SI MM 12:00:00 NR -20.33 52.66 274 268 __________P___ -1 -20.33 52.66 7 7 181
1886 SI MM 15:00:00 NR -20.66 52.64 273 269 __________P___ -1 -20.66 52.64 7 7 185
1886 SI MM 18:00:00 NR -21.00 52.60 269 269 __________O___ -1 -21.00 52.60 7 7 198
1886 SI MM 21:00:00 NR -21.34 52.41 291 291 __________P___ -1 -21.34 52.41 7 8 208
1886 SI MM 1886-04-08 00:00:00 NR -21.69 52.20 317 317 __________P___ -1 -21.69 52.20 7 8 204
1886 SI MM 03:00:00 NR -22.05 52.07 335 335 __________P___ -1 -22.05 52.07 7 7 188
1886 SI MM 06:00:00 NR -22.40 52.10 351 337 __________O___ -1 -22.40 52.10 7 8 154
1886 SI MM 09:00:00 NR -22.76 52.44 342 318 __________P___ -1 -22.76 52.44 7 11 133
1886 SI MM 12:00:00 NR -23.12 52.94 318 303 __________P___ -1 -23.12 52.94 7 12 126
1886 SI MM 15:00:00 NR -23.47 53.50 307 299 __________P___ -1 -23.47 53.50 7 12 125
1886 SI MM 18:00:00 NR -23.80 54.00 309 309 __________O___ -1 -23.80 54.00 7 10 128
1886 SI MM 21:00:00 NR -24.10 54.37 325 325 __________P___ -1 -24.10 54.37 7 8 136
1886 SI MM 1886-04-09 00:00:00 NR -24.38 54.61 350 347 __________P___ -1 -24.38 54.61 7 7 146
1886 SI MM 03:00:00 NR -24.64 54.78 366 366 __________P___ -1 -24.64 54.78 7 6 153
1886 SI MM 06:00:00 NR -24.90 54.90 397 __________O___ -1 -24.90 54.90 7 6 157